Time;durP1;ratioP1;P1;durP2;ratioP2;P2;SDS_P1;SDS_P2;PMS_P1;PMS_P2;Temp;Humidity;BMP_temperature;BMP_pressure;BME280_temperature;BME280_humidity;BME280_pressure;Samples;Min_cycle;Max_cycle;Signal;HPM_P1;HPM_P2
2021/05/09 00:01:35;;;;;;;19.88;13.02;;;2.50;93.20;;;;;;5105996;28;20012;-89
2021/05/09 00:04:01;;;;;;;22.17;12.55;;;2.50;93.30;;;;;;5103036;28;20024;-90
2021/05/09 00:06:26;;;;;;;21.13;12.20;;;2.50;93.30;;;;;;5101803;28;20396;-88
2021/05/09 00:08:53;;;;;;;23.73;12.38;;;2.40;93.30;;;;;;5104188;28;20436;-88
2021/05/09 00:11:19;;;;;;;22.67;12.73;;;2.40;93.10;;;;;;5105150;28;20047;-89
2021/05/09 00:13:45;;;;;;;20.38;12.27;;;2.40;93.20;;;;;;5103417;28;20078;-88
2021/05/09 00:16:11;;;;;;;23.23;12.95;;;2.30;93.40;;;;;;5102688;28;20035;-89
2021/05/09 00:18:37;;;;;;;24.55;13.18;;;2.30;93.60;;;;;;5099577;28;20028;-89
2021/05/09 00:21:03;;;;;;;22.30;11.25;;;2.30;93.50;;;;;;5104078;28;20032;-88
2021/05/09 00:23:29;;;;;;;22.90;12.68;;;2.20;93.30;;;;;;5102676;28;20046;-87
2021/05/09 00:25:54;;;;;;;20.80;13.43;;;2.20;93.20;;;;;;5103527;28;20110;-88
2021/05/09 00:28:20;;;;;;;23.80;12.68;;;2.20;93.20;;;;;;5106629;28;20027;-88
2021/05/09 00:30:46;;;;;;;20.35;11.38;;;2.10;93.20;;;;;;5100366;28;20479;-89
2021/05/09 00:33:13;;;;;;;24.23;14.02;;;2.20;93.30;;;;;;5103307;28;20067;-86
2021/05/09 00:35:39;;;;;;;23.08;13.48;;;2.10;93.30;;;;;;5106415;28;20098;-87
2021/05/09 00:38:05;;;;;;;29.08;15.27;;;2.00;93.50;;;;;;5104998;28;20542;-86
2021/05/09 00:40:30;;;;;;;22.58;13.23;;;2.00;93.30;;;;;;5105121;28;20432;-87
2021/05/09 00:42:56;;;;;;;19.88;11.70;;;2.00;93.50;;;;;;5105615;28;20028;-87
2021/05/09 00:45:22;;;;;;;25.20;14.32;;;1.90;93.90;;;;;;5100594;28;20020;-87
2021/05/09 00:47:49;;;;;;;22.65;13.60;;;1.90;93.70;;;;;;5099200;28;20020;-86
2021/05/09 00:50:17;;;;;;;23.80;13.18;;;2.00;93.60;;;;;;5097700;28;20027;-87
2021/05/09 00:52:45;;;;;;;19.50;12.75;;;1.80;94.00;;;;;;5107024;28;20135;-86
2021/05/09 00:55:11;;;;;;;20.15;11.88;;;1.80;94.60;;;;;;5105771;28;20036;-87
2021/05/09 00:57:39;;;;;;;20.77;11.50;;;1.70;94.30;;;;;;5107836;28;20558;-89
2021/05/09 01:00:06;;;;;;;26.52;14.10;;;1.80;93.90;;;;;;5101984;28;20047;-87
2021/05/09 01:02:33;;;;;;;21.42;12.15;;;1.80;93.60;;;;;;5108058;28;20020;-87
2021/05/09 01:04:59;;;;;;;19.13;11.85;;;1.80;93.70;;;;;;5103064;28;20099;-87
2021/05/09 01:07:26;;;;;;;22.88;11.85;;;1.80;93.60;;;;;;5109739;28;20034;-86
2021/05/09 01:09:52;;;;;;;23.23;12.80;;;1.80;93.70;;;;;;5107548;28;20032;-89
2021/05/09 01:12:18;;;;;;;20.58;11.98;;;1.80;93.90;;;;;;5109815;28;20065;-87
2021/05/09 01:14:44;;;;;;;23.58;12.52;;;1.80;93.70;;;;;;5103845;28;20036;-86
2021/05/09 01:17:11;;;;;;;20.73;12.73;;;1.80;93.60;;;;;;5106671;28;20529;-87
2021/05/09 01:19:39;;;;;;;19.35;11.93;;;1.90;93.60;;;;;;5104623;27;20028;-88
2021/05/09 01:22:12;;;;;;;20.15;11.98;;;1.80;93.40;;;;;;5103964;28;20510;-88
2021/05/09 01:24:38;;;;;;;21.75;12.63;;;1.80;93.50;;;;;;5107433;28;20028;-89
2021/05/09 01:27:05;;;;;;;19.50;12.25;;;1.80;93.60;;;;;;5107432;28;20027;-88
2021/05/09 01:29:33;;;;;;;21.40;12.73;;;1.80;93.70;;;;;;5106690;27;20019;-89
2021/05/09 01:31:59;;;;;;;20.45;12.93;;;1.80;93.90;;;;;;5106653;28;20043;-89
2021/05/09 01:34:32;;;;;;;18.38;11.75;;;1.80;93.90;;;;;;5111156;28;20031;-87
2021/05/09 01:36:58;;;;;;;23.17;12.57;;;1.70;93.70;;;;;;5104623;28;20111;-86
2021/05/09 01:39:24;;;;;;;21.08;13.07;;;1.60;93.60;;;;;;5109618;28;20110;-88
2021/05/09 01:41:49;;;;;;;18.10;12.40;;;1.60;93.90;;;;;;5104532;28;20027;-89
2021/05/09 01:44:15;;;;;;;21.30;12.63;;;1.60;94.10;;;;;;5103417;28;20073;-89
2021/05/09 01:46:40;;;;;;;24.52;13.77;;;1.60;94.30;;;;;;5107354;28;20032;-87
2021/05/09 01:49:06;;;;;;;24.20;14.25;;;1.60;94.30;;;;;;5109778;28;20024;-87
2021/05/09 01:51:32;;;;;;;21.10;13.63;;;1.50;93.90;;;;;;5107620;28;20038;-89
2021/05/09 01:53:57;;;;;;;26.08;14.18;;;1.40;94.50;;;;;;5104781;28;20035;-89
2021/05/09 01:56:23;;;;;;;22.83;13.32;;;1.40;94.70;;;;;;5107891;28;20102;-88
2021/05/09 01:58:49;;;;;;;22.10;13.23;;;1.40;94.70;;;;;;5110654;28;20020;-89
2021/05/09 02:01:14;;;;;;;20.35;13.07;;;1.40;94.60;;;;;;5105896;28;20073;-89
2021/05/09 02:03:40;;;;;;;22.45;13.48;;;1.30;94.80;;;;;;5105732;27;20080;-90
2021/05/09 02:06:06;;;;;;;21.27;12.63;;;1.30;94.40;;;;;;5101408;28;20016;-88
2021/05/09 02:08:32;;;;;;;20.85;12.93;;;1.20;94.10;;;;;;5110323;28;20024;-89
2021/05/09 02:10:57;;;;;;;19.02;12.68;;;1.20;94.40;;;;;;5107439;28;20539;-89
2021/05/09 02:13:23;;;;;;;30.65;14.25;;;1.20;94.40;;;;;;5107223;28;20107;-89
2021/05/09 02:15:49;;;;;;;26.38;13.80;;;1.20;94.60;;;;;;5102208;28;20052;-89
2021/05/09 02:18:14;;;;;;;25.02;14.65;;;1.30;94.30;;;;;;5100250;28;20103;-90
2021/05/09 02:20:40;;;;;;;25.23;13.23;;;1.20;94.50;;;;;;5108473;28;20066;-89
2021/05/09 02:23:06;;;;;;;21.98;13.68;;;1.20;94.40;;;;;;5100546;28;20032;-90
2021/05/09 02:25:31;;;;;;;22.00;13.50;;;1.30;94.20;;;;;;5106899;28;20028;-87
2021/05/09 02:27:57;;;;;;;23.38;12.93;;;1.40;94.20;;;;;;5108581;28;20024;-87
2021/05/09 02:30:23;;;;;;;21.45;14.13;;;1.30;94.30;;;;;;5106675;28;20050;-86
2021/05/09 02:32:48;;;;;;;22.63;13.25;;;1.20;94.50;;;;;;5105792;28;20028;-86
2021/05/09 02:35:14;;;;;;;22.15;13.20;;;1.30;94.70;;;;;;5099789;28;20131;-89
2021/05/09 02:37:40;;;;;;;22.80;13.50;;;1.30;94.10;;;;;;5102683;28;20040;-87
2021/05/09 02:40:07;;;;;;;22.15;12.20;;;1.20;94.10;;;;;;5108180;28;20036;-87
2021/05/09 02:42:33;;;;;;;24.92;13.20;;;1.10;94.20;;;;;;5109751;28;20055;-87
2021/05/09 02:44:58;;;;;;;25.98;15.90;;;1.20;94.10;;;;;;5104261;28;20033;-87
2021/05/09 02:47:30;;;;;;;23.00;13.27;;;1.20;94.10;;;;;;5100179;28;20020;-87
2021/05/09 02:50:01;;;;;;;20.45;13.07;;;1.20;94.60;;;;;;5108262;28;20032;-88
2021/05/09 02:52:27;;;;;;;23.30;13.55;;;1.20;94.20;;;;;;5109010;28;20057;-87
2021/05/09 02:54:53;;;;;;;24.15;14.02;;;1.20;94.40;;;;;;5106946;28;20036;-88
2021/05/09 02:57:19;;;;;;;22.23;13.38;;;1.10;94.30;;;;;;5103481;28;20046;-87
2021/05/09 02:59:45;;;;;;;21.67;12.85;;;1.00;94.40;;;;;;5104179;28;20031;-87
2021/05/09 03:02:11;;;;;;;18.58;11.50;;;1.00;94.60;;;;;;5106912;28;20020;-86
2021/05/09 03:04:37;;;;;;;26.50;13.60;;;1.10;94.40;;;;;;5109490;27;20027;-87
2021/05/09 03:07:03;;;;;;;22.05;12.38;;;1.10;94.20;;;;;;5106818;28;20020;-88
2021/05/09 03:09:29;;;;;;;24.63;14.18;;;1.10;94.10;;;;;;5109073;27;20032;-88
2021/05/09 03:11:54;;;;;;;20.15;12.77;;;1.10;94.50;;;;;;5104169;28;20080;-88
2021/05/09 03:14:20;;;;;;;21.70;13.57;;;1.20;94.80;;;;;;5105609;28;20040;-87
2021/05/09 03:16:46;;;;;;;26.98;14.70;;;1.10;94.20;;;;;;5104841;28;20028;-87
2021/05/09 03:19:12;;;;;;;23.92;13.43;;;1.20;94.80;;;;;;5101851;28;20024;-88
2021/05/09 03:21:40;;;;;;;25.08;13.55;;;1.30;94.70;;;;;;5103741;28;20059;-87
2021/05/09 03:24:07;;;;;;;22.42;14.02;;;1.20;95.20;;;;;;5108911;27;20069;-88
2021/05/09 03:26:33;;;;;;;25.50;14.95;;;1.30;95.20;;;;;;5102807;28;20028;-88
2021/05/09 03:28:59;;;;;;;20.60;13.90;;;1.30;94.90;;;;;;5104818;28;20652;-88
2021/05/09 03:31:24;;;;;;;25.27;14.75;;;1.40;94.80;;;;;;5104934;28;20508;-87
2021/05/09 03:33:50;;;;;;;23.85;13.30;;;1.50;95.00;;;;;;5102883;28;20039;-88
2021/05/09 03:36:15;;;;;;;22.52;13.23;;;1.60;94.90;;;;;;5100784;28;20080;-88
2021/05/09 03:38:41;;;;;;;26.00;13.35;;;1.70;94.60;;;;;;5103691;28;20141;-88
2021/05/09 03:41:07;;;;;;;19.63;12.57;;;1.80;94.60;;;;;;5102595;28;20027;-88
2021/05/09 03:43:33;;;;;;;21.25;13.02;;;1.90;94.50;;;;;;5105872;28;20024;-88
2021/05/09 03:45:58;;;;;;;19.73;12.32;;;2.10;94.20;;;;;;5101628;28;20069;-86
2021/05/09 03:48:24;;;;;;;22.40;13.15;;;2.30;93.80;;;;;;5101973;28;20051;-88
2021/05/09 03:50:49;;;;;;;22.00;13.13;;;2.70;93.80;;;;;;5107585;28;20027;-87
2021/05/09 03:53:15;;;;;;;21.70;12.05;;;3.20;93.10;;;;;;5105719;28;20054;-88
2021/05/09 03:55:41;;;;;;;20.88;14.75;;;3.90;91.70;;;;;;5101729;28;20435;-86
2021/05/09 03:58:08;;;;;;;24.95;13.27;;;4.20;90.80;;;;;;5107504;28;20103;-87
2021/05/09 04:00:33;;;;;;;24.95;13.95;;;4.50;90.40;;;;;;5102425;28;20379;-87
2021/05/09 04:02:59;;;;;;;23.00;12.93;;;4.70;90.00;;;;;;5107006;28;20131;-87
2021/05/09 04:05:25;;;;;;;20.42;12.45;;;4.70;90.20;;;;;;5100661;28;20157;-86
2021/05/09 04:07:50;;;;;;;20.88;13.07;;;5.00;90.10;;;;;;5099876;28;20061;-88
2021/05/09 04:10:17;;;;;;;23.33;13.43;;;5.50;89.20;;;;;;5110042;28;20043;-88
2021/05/09 04:12:42;;;;;;;21.00;13.18;;;6.00;87.70;;;;;;5107959;28;20391;-87
2021/05/09 04:15:09;;;;;;;21.83;13.60;;;6.40;85.60;;;;;;5099961;28;20024;-87
2021/05/09 04:17:34;;;;;;;22.35;13.68;;;6.90;83.50;;;;;;5104940;28;20037;-88
2021/05/09 04:20:00;;;;;;;19.83;12.85;;;7.30;82.40;;;;;;5099368;28;20035;-87
2021/05/09 04:22:26;;;;;;;22.40;12.68;;;7.70;81.10;;;;;;5108194;28;20063;-87
2021/05/09 04:24:51;;;;;;;20.98;13.55;;;7.90;80.00;;;;;;5104336;28;20028;-86
2021/05/09 04:27:17;;;;;;;21.20;11.95;;;8.10;79.80;;;;;;5105611;28;20099;-86
2021/05/09 04:29:43;;;;;;;21.48;12.88;;;8.20;79.80;;;;;;5104087;28;20028;-86
2021/05/09 04:32:08;;;;;;;21.80;13.05;;;8.10;79.80;;;;;;5104693;28;20026;-87
2021/05/09 04:34:34;;;;;;;21.70;13.73;;;7.50;82.20;;;;;;5107504;28;20039;-87
2021/05/09 04:36:59;;;;;;;19.73;12.73;;;7.10;85.10;;;;;;5104429;28;20028;-86
2021/05/09 04:39:25;;;;;;;23.65;13.60;;;6.80;88.00;;;;;;5102310;28;20381;-86
2021/05/09 04:41:51;;;;;;;21.63;13.43;;;6.40;90.00;;;;;;5104659;28;20080;-86
2021/05/09 04:44:17;;;;;;;19.88;11.65;;;6.20;90.70;;;;;;5102943;28;20016;-86
2021/05/09 04:46:42;;;;;;;23.05;14.05;;;6.10;91.20;;;;;;5102306;28;20479;-86
2021/05/09 04:49:08;;;;;;;19.95;12.73;;;6.00;91.80;;;;;;5102336;28;20483;-86
2021/05/09 04:51:34;;;;;;;20.40;13.15;;;6.00;92.10;;;;;;5104091;28;20483;-86
2021/05/09 04:54:00;;;;;;;21.33;13.60;;;6.00;92.60;;;;;;5106673;28;20058;-86
2021/05/09 04:56:25;;;;;;;22.83;13.20;;;6.10;92.90;;;;;;5101514;28;20150;-86
2021/05/09 04:58:51;;;;;;;20.38;13.13;;;6.20;93.10;;;;;;5103851;28;20073;-86
2021/05/09 05:01:17;;;;;;;22.25;13.10;;;6.30;93.00;;;;;;5105648;28;20121;-87
2021/05/09 05:03:44;;;;;;;19.55;12.73;;;6.40;93.10;;;;;;5104722;28;20020;-86
2021/05/09 05:06:09;;;;;;;17.25;11.35;;;6.60;92.90;;;;;;5106616;28;20447;-86
2021/05/09 05:08:36;;;;;;;20.30;11.90;;;6.60;92.30;;;;;;5105353;28;20035;-87
2021/05/09 05:11:05;;;;;;;19.52;12.07;;;6.80;92.40;;;;;;5104040;28;20027;-86
2021/05/09 05:13:31;;;;;;;23.23;13.27;;;6.90;92.40;;;;;;5106364;28;20039;-86
2021/05/09 05:15:59;;;;;;;18.73;12.38;;;7.00;92.60;;;;;;5099878;28;20026;-87
2021/05/09 05:18:25;;;;;;;18.70;11.23;;;7.20;92.50;;;;;;5100506;28;20364;-86
2021/05/09 05:20:52;;;;;;;18.75;11.10;;;7.40;92.40;;;;;;5100867;28;20585;-86
2021/05/09 05:23:18;;;;;;;15.40;10.38;;;7.50;92.30;;;;;;5105440;28;20051;-85
2021/05/09 05:25:45;;;;;;;17.17;10.88;;;7.70;92.40;;;;;;5101941;28;20027;-88
2021/05/09 05:28:11;;;;;;;13.85;9.40;;;7.80;91.70;;;;;;5106196;28;20039;-86
2021/05/09 05:30:37;;;;;;;16.58;9.65;;;8.00;91.60;;;;;;5104050;28;20024;-86
2021/05/09 05:33:04;;;;;;;14.85;9.27;;;8.10;91.20;;;;;;5100066;28;20096;-85
2021/05/09 05:35:30;;;;;;;14.35;8.98;;;8.30;91.10;;;;;;5098201;28;20020;-87
2021/05/09 05:37:56;;;;;;;14.40;8.05;;;8.40;90.10;;;;;;5103924;28;20040;-84
2021/05/09 05:40:23;;;;;;;12.20;7.78;;;8.60;88.90;;;;;;5106264;28;20043;-88
2021/05/09 05:42:50;;;;;;;12.60;7.20;;;8.70;88.70;;;;;;5103681;28;20485;-87
2021/05/09 05:45:16;;;;;;;11.93;8.13;;;8.90;86.90;;;;;;5100807;28;20558;-87
2021/05/09 05:47:41;;;;;;;13.43;7.50;;;9.10;87.70;;;;;;5104747;28;20076;-87
2021/05/09 05:50:08;;;;;;;14.27;8.40;;;9.30;86.40;;;;;;5102489;28;20019;-86
2021/05/09 05:52:34;;;;;;;12.75;7.30;;;9.40;84.60;;;;;;5110695;28;20071;-86
2021/05/09 05:55:00;;;;;;;10.80;6.63;;;9.60;83.90;;;;;;5109152;28;20153;-87
2021/05/09 05:57:26;;;;;;;10.43;6.07;;;9.70;81.70;;;;;;5107575;28;20020;-86
2021/05/09 05:59:51;;;;;;;10.60;6.45;;;9.80;81.10;;;;;;5103859;28;20099;-87
2021/05/09 06:02:17;;;;;;;9.27;5.60;;;9.90;80.40;;;;;;5106249;28;20047;-87
2021/05/09 06:04:43;;;;;;;9.50;5.95;;;10.00;79.20;;;;;;5111266;28;20047;-88
2021/05/09 06:07:12;;;;;;;9.45;6.03;;;10.20;79.00;;;;;;5107008;28;20039;-89
2021/05/09 06:09:38;;;;;;;9.02;5.40;;;10.40;76.20;;;;;;5107864;28;20115;-86
2021/05/09 06:12:04;;;;;;;9.35;5.07;;;10.50;76.00;;;;;;5104647;28;20024;-87
2021/05/09 06:14:31;;;;;;;9.02;5.07;;;10.70;76.00;;;;;;5101011;28;20058;-87
2021/05/09 06:16:56;;;;;;;9.38;5.10;;;10.80;74.70;;;;;;5105941;28;20295;-89
2021/05/09 06:19:22;;;;;;;8.50;4.55;;;11.00;73.10;;;;;;5102585;28;20035;-87
2021/05/09 06:21:48;;;;;;;7.10;4.80;;;11.00;72.40;;;;;;5109212;28;20463;-87
2021/05/09 06:24:14;;;;;;;8.65;5.03;;;11.00;71.40;;;;;;5110829;28;20043;-86
2021/05/09 06:26:40;;;;;;;7.93;4.45;;;11.10;73.50;;;;;;5103636;28;20031;-89
2021/05/09 06:29:06;;;;;;;8.52;4.72;;;11.20;70.40;;;;;;5105241;28;20076;-87
2021/05/09 06:31:31;;;;;;;7.72;4.25;;;11.30;71.00;;;;;;5108240;28;20055;-87
2021/05/09 06:33:57;;;;;;;7.20;4.05;;;11.40;71.30;;;;;;5100428;28;20483;-87
2021/05/09 06:36:23;;;;;;;7.45;4.38;;;11.60;71.90;;;;;;5103273;28;20810;-90
2021/05/09 06:38:49;;;;;;;6.05;3.88;;;11.70;70.50;;;;;;5105918;28;20054;-87
2021/05/09 06:41:15;;;;;;;7.63;4.80;;;11.80;68.10;;;;;;5105539;27;20483;-88
2021/05/09 06:43:40;;;;;;;8.00;4.20;;;11.90;68.20;;;;;;5106216;28;20024;-87
2021/05/09 06:46:06;;;;;;;6.60;3.72;;;12.00;70.00;;;;;;5102720;28;20047;-88
2021/05/09 06:48:32;;;;;;;6.43;3.45;;;12.10;66.80;;;;;;5102358;28;20073;-89
2021/05/09 06:50:58;;;;;;;8.50;3.83;;;12.20;68.00;;;;;;5109055;28;20032;-88
2021/05/09 06:53:24;;;;;;;7.00;3.70;;;12.40;67.00;;;;;;5108057;28;20034;-88
2021/05/09 06:55:50;;;;;;;6.07;3.50;;;12.40;66.50;;;;;;5103679;28;20027;-90
2021/05/09 06:58:20;;;;;;;7.18;3.55;;;12.60;66.20;;;;;;5104845;28;20112;-85
2021/05/09 07:00:46;;;;;;;5.82;3.20;;;12.70;66.00;;;;;;5108020;28;20012;-89
2021/05/09 07:03:12;;;;;;;8.65;3.75;;;12.80;65.80;;;;;;5104645;28;20023;-87
2021/05/09 07:05:37;;;;;;;7.00;3.28;;;13.00;62.90;;;;;;5107406;28;20532;-87
2021/05/09 07:08:04;;;;;;;7.05;3.63;;;13.10;62.50;;;;;;5107608;28;20038;-89
2021/05/09 07:10:33;;;;;;;7.40;3.50;;;13.10;61.60;;;;;;5104664;28;20024;-88
2021/05/09 07:12:59;;;;;;;4.80;3.03;;;13.20;62.30;;;;;;5105407;28;20457;-87
2021/05/09 07:18:24;;;;;;;5.47;3.17;;;13.50;59.90;;;;;;5104775;27;20031;-89
2021/05/09 07:20:54;;;;;;;7.25;3.65;;;13.50;60.10;;;;;;5107430;28;20077;-89
2021/05/09 07:23:20;;;;;;;9.57;6.28;;;13.60;62.40;;;;;;5100231;27;20078;-88
2021/05/09 07:25:45;;;;;;;7.70;3.83;;;13.70;61.10;;;;;;5106960;28;20043;-88
2021/05/09 07:28:16;;;;;;;6.38;3.67;;;13.80;61.40;;;;;;5108051;28;20032;-88
2021/05/09 07:30:43;;;;;;;5.97;3.25;;;13.90;60.80;;;;;;5106602;28;20023;-87
2021/05/09 07:33:12;;;;;;;8.10;3.63;;;13.90;58.50;;;;;;5106217;28;20061;-88
2021/05/09 07:35:38;;;;;;;9.27;3.63;;;13.90;59.60;;;;;;5103228;28;20016;-89
2021/05/09 07:38:05;;;;;;;6.57;3.38;;;13.90;60.00;;;;;;5104647;28;20053;-90
2021/05/09 07:40:31;;;;;;;6.30;3.40;;;14.00;59.30;;;;;;5105700;28;20060;-89
2021/05/09 07:42:57;;;;;;;5.53;3.17;;;14.00;59.00;;;;;;5106759;28;20024;-90
2021/05/09 07:45:23;;;;;;;9.55;4.60;;;14.10;59.80;;;;;;5106308;28;20289;-89
2021/05/09 07:47:49;;;;;;;6.10;3.45;;;14.10;58.80;;;;;;5101460;28;20047;-86
2021/05/09 07:50:16;;;;;;;7.25;4.03;;;14.20;58.60;;;;;;5105017;28;20070;-85
2021/05/09 07:52:47;;;;;;;6.70;3.50;;;14.30;59.40;;;;;;5106752;28;20028;-88
2021/05/09 07:55:13;;;;;;;;;;;14.40;58.10;;;;;;5107299;28;20038;-87
2021/05/09 07:57:39;;;;;;;6.30;3.67;;;14.50;56.20;;;;;;5103734;28;19976;-88
2021/05/09 08:00:12;;;;;;;5.70;3.42;;;14.50;57.20;;;;;;5103121;28;20096;-88
2021/05/09 08:02:38;;;;;;;6.50;4.20;;;14.70;58.40;;;;;;5102885;28;20120;-89
2021/05/09 08:05:04;;;;;;;7.57;4.90;;;14.80;60.20;;;;;;5103291;28;20023;-87
2021/05/09 08:07:30;;;;;;;11.05;6.03;;;14.80;57.40;;;;;;5105027;28;20058;-87
2021/05/09 08:09:56;;;;;;;5.82;3.47;;;14.90;58.30;;;;;;5105737;28;20031;-87
2021/05/09 08:12:21;;;;;;;6.10;3.55;;;15.10;55.70;;;;;;5105996;28;20550;-89
2021/05/09 08:14:48;;;;;;;5.50;2.83;;;15.10;54.90;;;;;;5104940;28;20177;-89
2021/05/09 08:17:15;;;;;;;4.93;3.25;;;15.10;55.20;;;;;;5098980;28;20022;-89
2021/05/09 08:19:40;;;;;;;6.97;3.08;;;15.20;55.40;;;;;;5100953;28;20040;-87
2021/05/09 08:22:06;;;;;;;8.50;3.38;;;15.20;53.70;;;;;;5105020;28;20044;-88
2021/05/09 08:24:32;;;;;;;3.80;3.17;;;15.30;54.50;;;;;;5105378;28;20028;-90
2021/05/09 08:26:58;;;;;;;6.40;3.88;;;15.30;52.10;;;;;;5106023;28;20478;-87
2021/05/09 08:29:25;;;;;;;6.18;3.80;;;15.40;53.20;;;;;;5102516;28;20016;-88
2021/05/09 08:31:51;;;;;;;5.35;3.72;;;15.50;51.90;;;;;;5107006;28;20567;-89
2021/05/09 08:34:16;;;;;;;5.60;3.40;;;15.50;53.70;;;;;;5100029;28;20066;-89
2021/05/09 08:36:42;;;;;;;5.22;3.10;;;15.60;52.40;;;;;;5090636;28;20123;-88
2021/05/09 08:39:08;;;;;;;4.65;3.20;;;15.70;52.50;;;;;;5104180;28;20383;-88
2021/05/09 08:41:41;;;;;;;6.80;3.92;;;15.90;52.30;;;;;;5105528;28;20475;-88
2021/05/09 08:44:08;;;;;;;4.85;3.75;;;15.90;48.90;;;;;;5103681;28;20409;-89
2021/05/09 08:46:35;;;;;;;5.82;3.67;;;16.00;50.00;;;;;;5102360;28;20020;-89
2021/05/09 08:49:03;;;;;;;14.55;9.45;;;16.10;49.40;;;;;;5105001;28;20482;-87
2021/05/09 08:51:31;;;;;;;7.53;4.95;;;16.10;49.10;;;;;;5102741;28;20047;-90
2021/05/09 08:53:57;;;;;;;6.80;3.88;;;16.10;49.20;;;;;;5107383;28;20044;-88
2021/05/09 08:56:24;;;;;;;6.32;3.67;;;16.10;51.10;;;;;;5102925;28;20352;-89
2021/05/09 08:58:51;;;;;;;6.25;3.22;;;16.10;49.20;;;;;;5105439;28;20517;-91
2021/05/09 09:01:16;;;;;;;5.78;2.97;;;16.10;50.00;;;;;;5099947;28;20468;-89
2021/05/09 09:03:42;;;;;;;6.57;3.15;;;16.20;52.00;;;;;;5099587;28;20074;-90
2021/05/09 09:06:16;;;;;;;5.75;3.53;;;16.20;49.20;;;;;;5106363;28;20077;-90
2021/05/09 09:08:52;;;;;;;6.93;3.45;;;16.20;49.80;;;;;;5104813;28;20110;-90
2021/05/09 09:11:28;;;;;;;9.40;4.15;;;16.30;50.30;;;;;;5098056;28;20035;-89
2021/05/09 09:14:11;;;;;;;7.85;4.25;;;16.30;50.00;;;;;;5104643;28;20036;-90
2021/05/09 09:16:37;;;;;;;7.85;4.55;;;16.30;51.30;;;;;;5099924;28;20089;-90
2021/05/09 09:19:13;;;;;;;6.50;4.05;;;16.40;51.40;;;;;;5100203;28;20446;-90
2021/05/09 09:21:41;;;;;;;9.85;7.93;;;16.40;52.20;;;;;;5102453;28;20047;-87
2021/05/09 09:24:11;;;;;;;16.73;12.60;;;16.40;52.60;;;;;;5111096;28;20012;-89
2021/05/09 09:26:42;;;;;;;;;;;16.50;51.20;;;;;;5103634;28;20054;-87
2021/05/09 09:29:30;;;;;;;5.95;3.35;;;16.50;52.50;;;;;;5110066;28;19926;-89
2021/05/09 09:32:02;;;;;;;7.25;4.13;;;16.60;51.80;;;;;;5108336;28;20020;-90
2021/05/09 09:34:39;;;;;;;6.72;3.90;;;16.60;51.80;;;;;;5107665;28;20044;-88
2021/05/09 09:37:05;;;;;;;5.13;3.53;;;16.70;51.20;;;;;;5105425;28;20432;-87
2021/05/09 09:39:46;;;;;;;6.18;3.97;;;16.70;53.50;;;;;;5106769;28;20016;-88
2021/05/09 09:42:12;;;;;;;5.10;3.40;;;16.80;52.90;;;;;;5100449;28;20028;-87
2021/05/09 09:44:38;;;;;;;6.88;4.03;;;16.80;51.10;;;;;;5106308;28;20111;-86
2021/05/09 09:47:04;;;;;;;5.30;3.63;;;16.90;51.10;;;;;;5104933;27;20036;-87
2021/05/09 09:49:31;;;;;;;6.63;3.97;;;16.90;51.80;;;;;;5105422;28;20016;-87
2021/05/09 09:52:03;;;;;;;5.60;2.95;;;17.00;51.30;;;;;;5108088;28;20436;-87
2021/05/09 09:54:37;;;;;;;3.85;2.53;;;17.10;51.10;;;;;;5099158;28;20046;-86
2021/05/09 09:57:06;;;;;;;4.18;2.72;;;17.20;51.20;;;;;;5106206;28;20067;-87
2021/05/09 09:59:34;;;;;;;8.50;3.60;;;17.20;49.70;;;;;;5104751;28;20038;-87
2021/05/09 10:02:02;;;;;;;6.32;3.85;;;17.10;50.60;;;;;;5107153;28;20888;-85
2021/05/09 10:04:28;;;;;;;32.20;24.60;;;17.20;49.60;;;;;;5109758;28;20115;-86
2021/05/09 10:06:53;;;;;;;7.00;4.30;;;17.20;50.90;;;;;;5109704;28;20437;-86
2021/05/09 10:09:19;;;;;;;4.78;3.15;;;17.30;50.50;;;;;;5110310;28;20542;-87
2021/05/09 10:11:44;;;;;;;6.47;3.90;;;17.40;50.90;;;;;;5104608;28;20020;-87
2021/05/09 10:14:10;;;;;;;4.93;3.47;;;17.50;50.60;;;;;;5106914;28;20043;-87
2021/05/09 10:16:46;;;;;;;6.50;3.47;;;17.50;50.80;;;;;;5109922;28;20024;-86
2021/05/09 10:19:15;;;;;;;4.70;2.95;;;17.50;51.30;;;;;;5103785;28;20045;-88
2021/05/09 10:21:42;;;;;;;4.75;3.38;;;17.60;50.30;;;;;;5102000;28;20061;-87
2021/05/09 10:24:08;;;;;;;6.45;3.38;;;17.60;51.60;;;;;;5103285;28;20008;-87
2021/05/09 10:26:43;;;;;;;6.32;3.83;;;17.60;50.10;;;;;;5106863;27;20483;-87
2021/05/09 10:29:08;;;;;;;4.70;2.67;;;17.60;49.20;;;;;;5102075;28;20039;-86
2021/05/09 10:31:34;;;;;;;5.97;3.08;;;17.70;50.50;;;;;;5104562;28;20028;-88
2021/05/09 10:34:00;;;;;;;5.00;2.83;;;17.70;49.90;;;;;;5107159;28;20101;-86
2021/05/09 10:36:25;;;;;;;9.30;3.42;;;17.70;51.50;;;;;;5107507;28;20051;-87
2021/05/09 10:39:10;;;;;;;4.10;2.50;;;17.80;50.00;;;;;;5108625;28;20031;-87
2021/05/09 10:41:58;;;;;;;8.88;5.53;;;17.70;49.40;;;;;;5105894;28;20529;-86
2021/05/09 10:44:41;;;;;;;5.82;3.75;;;17.80;48.90;;;;;;5104803;28;20024;-88
2021/05/09 10:47:33;;;;;;;8.38;3.78;;;17.90;49.00;;;;;;5100439;28;20031;-88
2021/05/09 10:50:14;;;;;;;5.25;2.38;;;17.90;49.60;;;;;;5102661;28;20139;-88
2021/05/09 10:52:44;;;;;;;5.07;2.55;;;17.90;49.10;;;;;;5103840;28;20372;-88
2021/05/09 10:55:42;;;;;;;3.55;1.73;;;17.80;47.00;;;;;;5109486;28;20036;-87
2021/05/09 10:58:10;;;;;;;3.53;2.50;;;17.90;48.20;;;;;;5107916;28;20032;-88
2021/05/09 11:00:57;;;;;;;5.20;2.33;;;17.90;47.80;;;;;;5102828;28;20027;-87
2021/05/09 11:03:39;;;;;;;6.45;2.28;;;18.10;49.60;;;;;;5101061;28;20945;-87
2021/05/09 11:06:09;;;;;;;4.35;1.95;;;18.10;48.80;;;;;;5105539;28;20031;-86
2021/05/09 11:09:02;;;;;;;2.83;1.97;;;18.20;49.00;;;;;;5105045;28;20453;-87
2021/05/09 11:11:30;;;;;;;13.52;3.97;;;18.30;47.40;;;;;;5101302;28;20032;-86
2021/05/09 11:13:59;;;;;;;4.30;1.98;;;18.30;47.50;;;;;;5102745;28;20070;-88
2021/05/09 11:16:26;;;;;;;3.42;1.27;;;18.30;46.70;;;;;;5101833;28;20062;-87
2021/05/09 11:18:59;;;;;;;5.35;2.00;;;18.40;47.40;;;;;;5102717;28;20026;-87
2021/05/09 11:21:36;;;;;;;4.93;2.03;;;18.40;47.70;;;;;;5107150;28;20071;-88
2021/05/09 11:24:05;;;;;;;3.10;1.80;;;18.40;48.50;;;;;;5110765;28;20116;-88
2021/05/09 11:26:41;;;;;;;3.50;2.33;;;18.50;48.80;;;;;;5102873;28;20031;-87
2021/05/09 11:29:11;;;;;;;5.15;2.38;;;18.50;47.40;;;;;;5104255;28;20383;-87
2021/05/09 11:31:38;;;;;;;5.57;2.08;;;18.60;48.90;;;;;;5106994;28;20029;-88
2021/05/09 11:34:05;;;;;;;3.03;1.85;;;18.60;46.50;;;;;;5104798;28;20028;-88
2021/05/09 11:36:33;;;;;;;4.00;2.17;;;18.50;46.20;;;;;;5105976;28;20471;-87
2021/05/09 11:39:19;;;;;;;4.68;1.90;;;18.60;46.70;;;;;;5108230;28;20424;-87
2021/05/09 11:42:01;;;;;;;3.17;1.90;;;18.60;46.00;;;;;;5103416;28;20035;-87
2021/05/09 11:44:42;;;;;;;5.35;1.80;;;18.60;47.00;;;;;;5100981;28;20031;-87
2021/05/09 11:47:26;;;;;;;4.05;1.85;;;18.70;47.20;;;;;;5099325;28;20027;-86
2021/05/09 11:50:08;;;;;;;3.22;1.80;;;18.70;47.10;;;;;;5102702;28;20027;-86
2021/05/09 11:52:36;;;;;;;3.53;1.73;;;18.70;47.20;;;;;;5103523;28;20031;-88
2021/05/09 11:55:05;;;;;;;3.95;1.70;;;18.80;47.50;;;;;;5104669;28;20146;-87
2021/05/09 11:57:32;;;;;;;5.05;2.05;;;18.90;48.20;;;;;;5106633;28;20015;-87
2021/05/09 12:00:05;;;;;;;3.63;2.08;;;18.90;48.80;;;;;;5101880;28;20030;-87
2021/05/09 12:02:35;;;;;;;3.72;1.73;;;19.00;48.10;;;;;;5105710;28;20023;-88
2021/05/09 12:05:09;;;;;;;3.47;1.80;;;19.00;48.80;;;;;;5107141;28;20053;-86
2021/05/09 12:07:43;;;;;;;3.30;1.92;;;19.00;47.70;;;;;;5108803;28;20023;-89
2021/05/09 12:10:15;;;;;;;3.88;2.10;;;19.00;48.40;;;;;;5109312;28;20543;-87
2021/05/09 12:12:41;;;;;;;4.22;1.98;;;19.00;46.90;;;;;;5103997;28;20020;-87
2021/05/09 12:15:07;;;;;;;5.18;1.60;;;19.10;46.90;;;;;;5103021;28;20032;-87
2021/05/09 12:17:34;;;;;;;1.75;1.13;;;19.10;46.80;;;;;;5107571;28;20478;-88
2021/05/09 12:20:00;;;;;;;2.13;1.55;;;19.10;45.40;;;;;;5105620;28;20032;-87
2021/05/09 12:22:36;;;;;;;5.90;1.58;;;19.10;46.10;;;;;;5108299;28;20051;-88
2021/05/09 12:25:02;;;;;;;3.33;1.85;;;19.20;45.30;;;;;;5102763;28;20048;-87
2021/05/09 12:27:28;;;;;;;2.63;1.50;;;19.20;47.20;;;;;;5105662;28;20532;-89
2021/05/09 12:29:58;;;;;;;2.30;1.45;;;19.30;48.10;;;;;;5104627;28;20036;-86
2021/05/09 12:32:25;;;;;;;2.47;1.55;;;19.30;46.30;;;;;;5104521;28;20024;-88
2021/05/09 12:35:10;;;;;;;2.85;1.27;;;19.30;46.70;;;;;;5096237;28;20433;-86
2021/05/09 12:37:41;;;;;;;2.75;1.20;;;19.30;47.10;;;;;;5103812;28;20057;-87
2021/05/09 12:40:23;;;;;;;4.05;1.40;;;19.30;46.80;;;;;;5108156;28;20070;-86
2021/05/09 12:42:57;;;;;;;3.55;1.40;;;19.40;46.80;;;;;;5105953;28;20390;-87
2021/05/09 12:45:30;;;;;;;2.22;1.30;;;19.50;45.80;;;;;;5099818;28;20019;-86
2021/05/09 12:48:12;;;;;;;1.65;1.00;;;19.50;45.10;;;;;;5101096;28;20043;-87
2021/05/09 12:51:05;;;;;;;3.28;1.00;;;19.50;44.90;;;;;;5106283;28;20016;-87